Time;durP1;ratioP1;P1;durP2;ratioP2;P2;SDS_P1;SDS_P2;PMS_P1;PMS_P2;Temp;Humidity;BMP_temperature;BMP_pressure;BME280_temperature;BME280_humidity;BME280_pressure;Samples;Min_cycle;Max_cycle;Signal;HPM_P1;HPM_P2
2023/07/14 00:02:27;;;;;;;5.53;2.88;;;;;;;16.82;65.37;100082.81;10452324;28;20044;-79
2023/07/14 00:07:29;;;;;;;6.00;3.20;;;;;;;16.85;66.42;100078.56;10484468;28;20041;-78
2023/07/14 00:12:32;;;;;;;4.38;2.97;;;;;;;16.93;67.22;100074.09;10483853;28;20048;-76
2023/07/14 00:17:34;;;;;;;4.97;3.13;;;;;;;17.08;68.36;100066.00;10484261;28;20419;-76
2023/07/14 00:22:36;;;;;;;6.60;3.05;;;;;;;17.15;69.51;100065.44;10481764;28;20526;-77
2023/07/14 00:27:39;;;;;;;6.18;3.08;;;;;;;17.17;69.75;100072.28;10484071;28;20048;-79
2023/07/14 00:32:42;;;;;;;4.93;2.80;;;;;;;16.80;72.79;100074.03;10482776;28;20048;-78
2023/07/14 00:37:47;;;;;;;4.22;2.70;;;;;;;17.00;72.97;100080.72;10465539;28;20522;-79
2023/07/14 00:42:54;;;;;;;4.32;2.90;;;;;;;17.13;72.58;100071.31;10452856;28;20040;-78
2023/07/14 00:48:03;;;;;;;4.50;2.90;;;;;;;17.26;72.83;100076.94;10480827;28;20052;-78
2023/07/14 00:53:14;;;;;;;4.80;3.05;;;;;;;17.36;73.71;100074.56;10448298;28;20037;-73
2023/07/14 00:58:24;;;;;;;3.25;2.40;;;;;;;17.29;74.37;100081.81;10461691;28;20403;-74
2023/07/14 01:03:29;;;;;;;4.13;2.47;;;;;;;17.31;76.02;100090.59;10448384;28;20056;-73
2023/07/14 01:08:31;;;;;;;5.75;3.10;;;;;;;17.29;76.11;100090.94;10433596;28;20032;-73
2023/07/14 01:13:34;;;;;;;4.80;2.70;;;;;;;17.13;78.03;100090.75;10467525;28;20049;-74
2023/07/14 01:18:38;;;;;;;6.15;2.75;;;;;;;16.92;79.84;100092.69;10445615;28;20041;-74
2023/07/14 01:24:03;;;;;;;3.03;2.25;;;;;;;17.04;79.67;100095.56;10450998;28;20611;-74
2023/07/14 01:29:06;;;;;;;4.82;2.03;;;;;;;17.19;79.80;100105.22;10483965;28;20049;-74
2023/07/14 01:34:08;;;;;;;3.83;2.35;;;;;;;17.23;79.43;100110.91;10468156;28;20051;-74
2023/07/14 01:39:11;;;;;;;3.88;2.22;;;;;;;16.97;81.87;100106.34;10483397;28;20040;-74
2023/07/14 01:44:19;;;;;;;2.83;1.88;;;;;;;16.98;81.78;100105.19;10467562;28;20048;-74
2023/07/14 01:49:35;;;;;;;2.63;2.30;;;;;;;16.83;82.17;100105.78;10466773;28;20048;-74
2023/07/14 01:54:43;;;;;;;6.37;3.03;;;;;;;16.82;83.00;100102.22;10485449;28;20430;-73
2023/07/14 01:59:46;;;;;;;;;;;;;;;16.99;82.60;100111.56;10475431;28;20037;-74
2023/07/14 02:04:49;;;;;;;4.32;2.90;;;;;;;17.44;80.99;100103.38;10467099;28;19920;-73
2023/07/14 02:09:51;;;;;;;5.85;2.85;;;;;;;17.61;79.38;100114.31;10448126;28;20570;-73
2023/07/14 02:14:59;;;;;;;5.43;3.20;;;;;;;17.99;77.20;100113.28;10453384;28;20435;-73
2023/07/14 02:20:06;;;;;;;5.17;3.20;;;;;;;18.22;75.74;100127.56;10472288;28;20041;-73
2023/07/14 02:25:14;;;;;;;4.72;3.20;;;;;;;18.31;75.25;100129.09;10449046;28;20043;-73
2023/07/14 02:30:18;;;;;;;4.65;3.10;;;;;;;18.89;72.70;100127.03;10472927;28;20439;-73
2023/07/14 02:35:30;;;;;;;5.30;3.25;;;;;;;18.78;73.04;100141.75;10484393;28;20530;-73
2023/07/14 02:40:46;;;;;;;4.32;2.83;;;;;;;18.92;71.96;100131.91;10468460;28;20072;-73
2023/07/14 02:45:56;;;;;;;3.90;2.78;;;;;;;19.22;70.20;100134.38;10489601;28;20060;-73
2023/07/14 02:50:59;;;;;;;6.38;2.78;;;;;;;19.57;67.75;100138.25;10467311;28;20736;-73
2023/07/14 02:56:03;;;;;;;5.53;3.08;;;;;;;19.79;67.31;100138.88;10456477;28;20519;-73
2023/07/14 03:01:06;;;;;;;4.97;3.08;;;;;;;19.87;67.15;100137.88;10438845;28;20046;-73
2023/07/14 03:06:11;;;;;;;5.32;3.05;;;;;;;20.35;65.19;100139.56;10488516;28;20060;-73
2023/07/14 03:11:13;;;;;;;4.90;2.45;;;;;;;20.21;65.49;100142.00;10487525;28;20581;-73
2023/07/14 03:16:15;;;;;;;3.85;3.13;;;;;;;20.54;64.76;100155.63;10488587;28;20036;-73
2023/07/14 03:21:18;;;;;;;4.00;2.58;;;;;;;20.95;63.57;100164.56;10466733;28;20052;-74
2023/07/14 03:26:20;;;;;;;4.35;3.10;;;;;;;21.21;62.09;100162.00;10485801;28;20056;-73
2023/07/14 03:31:22;;;;;;;4.68;2.95;;;;;;;21.15;61.99;100155.06;10485823;28;20527;-73
2023/07/14 03:36:25;;;;;;;5.22;2.67;;;;;;;21.89;60.20;100153.09;10435833;28;20048;-72
2023/07/14 03:41:27;;;;;;;6.03;2.97;;;;;;;22.03;59.62;100160.91;10479721;28;20045;-73
2023/07/14 03:46:29;;;;;;;3.75;2.67;;;;;;;22.02;59.43;100166.88;10451905;28;20121;-73
2023/07/14 03:51:32;;;;;;;6.53;3.05;;;;;;;22.57;57.39;100171.13;10445243;28;20032;-72
2023/07/14 03:56:34;;;;;;;4.85;2.70;;;;;;;23.15;55.90;100171.69;10483430;28;20037;-72
2023/07/14 04:01:37;;;;;;;6.63;2.63;;;;;;;23.98;53.91;100177.19;10476786;28;20045;-73
2023/07/14 04:06:39;;;;;;;4.10;2.80;;;;;;;23.94;54.25;100181.13;10467946;28;20049;-73
2023/07/14 04:11:41;;;;;;;5.05;2.47;;;;;;;24.30;52.98;100186.00;10480552;28;20052;-73
2023/07/14 04:16:43;;;;;;;5.40;2.90;;;;;;;23.80;54.53;100178.19;10445961;28;20067;-73
2023/07/14 04:21:46;;;;;;;2.95;2.45;;;;;;;23.20;56.11;100183.72;10468960;28;20037;-74
2023/07/14 04:26:49;;;;;;;2.67;2.47;;;;;;;22.77;56.66;100180.25;10448635;28;20065;-73
2023/07/14 04:31:52;;;;;;;3.55;2.60;;;;;;;22.36;57.67;100188.31;10471219;28;20055;-73
2023/07/14 04:36:55;;;;;;;9.30;5.53;;;;;;;21.97;58.71;100184.75;10439106;28;20431;-73
2023/07/14 04:41:57;;;;;;;5.45;2.85;;;;;;;22.15;58.09;100183.13;10483570;28;20037;-73
2023/07/14 04:47:00;;;;;;;3.15;2.35;;;;;;;21.78;58.43;100185.56;10466963;28;20045;-73
2023/07/14 04:52:02;;;;;;;6.97;2.80;;;;;;;22.55;56.67;100193.03;10484053;28;20038;-73
2023/07/14 04:57:04;;;;;;;3.22;2.45;;;;;;;23.77;54.36;100186.13;10483330;28;20384;-74
2023/07/14 05:02:07;;;;;;;3.10;2.47;;;;;;;23.91;53.76;100177.09;10482674;28;20048;-74
2023/07/14 05:07:09;;;;;;;4.80;2.80;;;;;;;24.58;52.34;100182.63;10483438;28;20052;-74
2023/07/14 05:12:11;;;;;;;4.05;2.70;;;;;;;24.67;50.46;100185.13;10484569;28;20048;-73
2023/07/14 05:17:13;;;;;;;7.43;3.10;;;;;;;24.34;51.49;100186.03;10482767;28;20036;-73
2023/07/14 05:22:16;;;;;;;3.10;2.50;;;;;;;25.81;48.85;100178.25;10483644;28;20049;-74
2023/07/14 05:27:18;;;;;;;3.38;2.58;;;;;;;26.03;48.84;100186.78;10464235;28;20049;-74
2023/07/14 05:32:21;;;;;;;3.78;2.55;;;;;;;24.58;51.27;100190.25;10461711;28;20045;-74
2023/07/14 05:37:24;;;;;;;3.20;2.83;;;;;;;24.30;51.70;100194.41;10492499;28;20051;-73
2023/07/14 05:42:26;;;;;;;3.63;2.53;;;;;;;24.93;50.69;100189.75;10491968;28;20044;-74
2023/07/14 05:47:29;;;;;;;3.38;2.65;;;;;;;25.17;50.21;100185.53;10493093;28;20056;-74
2023/07/14 05:52:31;;;;;;;5.13;3.33;;;;;;;24.76;51.02;100193.22;10488924;28;20506;-74
2023/07/14 05:57:36;;;;;;;3.00;2.67;;;;;;;24.34;50.63;100202.84;10473161;28;20035;-74
2023/07/14 06:02:38;;;;;;;5.30;2.38;;;;;;;24.90;49.85;100204.56;10491584;28;20060;-74
2023/07/14 06:07:40;;;;;;;5.25;2.72;;;;;;;25.63;47.97;100207.47;10490940;28;20067;-74
2023/07/14 06:12:42;;;;;;;4.88;2.85;;;;;;;26.59;45.93;100203.00;10486735;28;20037;-74
2023/07/14 06:17:45;;;;;;;3.78;2.25;;;;;;;27.03;45.21;100207.47;10489930;28;20049;-74
2023/07/14 06:22:48;;;;;;;5.40;2.25;;;;;;;27.32;45.40;100197.75;10474104;28;20047;-74
2023/07/14 06:27:50;;;;;;;3.75;2.35;;;;;;;27.69;45.40;100188.03;10490000;28;20525;-74
2023/07/14 06:32:53;;;;;;;2.92;2.63;;;;;;;28.12;44.38;100193.47;10489343;28;20555;-74
2023/07/14 06:37:58;;;;;;;5.35;2.70;;;;;;;28.84;42.55;100205.91;10471661;28;20037;-74
2023/07/14 06:43:00;;;;;;;3.00;2.42;;;;;;;28.76;43.29;100196.69;10470893;28;20056;-74
2023/07/14 06:48:03;;;;;;;5.50;2.65;;;;;;;29.12;42.42;100190.75;10489582;28;20407;-74
2023/07/14 06:53:05;;;;;;;4.57;2.65;;;;;;;29.13;43.05;100198.00;10490374;28;20052;-74
2023/07/14 06:58:08;;;;;;;4.10;3.00;;;;;;;29.55;42.71;100202.44;10489088;28;20499;-75
2023/07/14 07:03:10;;;;;;;3.40;2.80;;;;;;;30.21;40.94;100193.56;10471178;28;20053;-74
2023/07/14 07:08:13;;;;;;;4.28;2.75;;;;;;;30.46;40.64;100200.88;10486928;28;20045;-74
2023/07/14 07:13:16;;;;;;;6.93;2.53;;;;;;;29.70;41.89;100197.44;10464909;28;20045;-74
2023/07/14 07:18:19;;;;;;;4.20;2.60;;;;;;;29.54;42.06;100205.69;10446804;28;20053;-74
2023/07/14 07:23:21;;;;;;;5.47;2.88;;;;;;;28.70;43.81;100206.03;10478463;28;20060;-74
2023/07/14 07:28:24;;;;;;;3.85;2.78;;;;;;;29.41;43.42;100192.06;10488835;28;20053;-74
2023/07/14 07:33:26;;;;;;;3.38;2.58;;;;;;;30.30;41.26;100205.13;10468857;28;20600;-74
2023/07/14 07:38:28;;;;;;;4.88;2.90;;;;;;;30.59;40.06;100199.06;10451651;28;20041;-74
2023/07/14 07:43:31;;;;;;;5.50;2.60;;;;;;;30.57;40.07;100204.34;10471894;28;20048;-73
2023/07/14 07:48:34;;;;;;;3.45;2.30;;;;;;;30.23;40.71;100204.44;10484574;28;20068;-74
2023/07/14 07:53:37;;;;;;;3.50;2.28;;;;;;;30.04;40.97;100202.25;10486929;28;20041;-74
2023/07/14 07:58:39;;;;;;;4.85;2.60;;;;;;;30.11;40.72;100205.00;10480829;28;20033;-74
2023/07/14 08:03:41;;;;;;;4.28;2.40;;;;;;;30.02;40.45;100202.66;10482820;28;20053;-75
2023/07/14 08:08:44;;;;;;;2.67;2.38;;;;;;;30.90;39.01;100213.97;10485286;28;20053;-75
2023/07/14 08:13:46;;;;;;;4.00;2.92;;;;;;;30.14;39.48;100218.31;10456007;28;20053;-75
2023/07/14 08:18:49;;;;;;;5.55;2.60;;;;;;;29.31;40.35;100217.59;10461983;28;20541;-75
2023/07/14 08:23:51;;;;;;;7.93;3.53;;;;;;;28.51;42.16;100225.13;10480481;28;20048;-75
2023/07/14 08:28:53;;;;;;;2.88;2.20;;;;;;;28.99;41.93;100227.22;10485585;28;20053;-72
2023/07/14 08:33:56;;;;;;;2.70;2.50;;;;;;;29.18;41.67;100222.19;10469036;28;20423;-72
2023/07/14 08:38:58;;;;;;;4.90;2.78;;;;;;;29.79;40.51;100230.84;10479817;28;20060;-72
2023/07/14 08:44:09;;;;;;;4.05;2.78;;;;;;;28.36;42.96;100232.06;10479532;28;20056;-72
2023/07/14 08:49:21;;;;;;;4.07;2.63;;;;;;;27.85;44.40;100227.84;10469154;28;20483;-72
2023/07/14 08:54:40;;;;;;;3.00;2.47;;;;;;;28.76;42.76;100227.75;10463074;28;20049;-73
2023/07/14 08:59:43;;;;;;;3.75;2.70;;;;;;;26.70;46.18;100243.22;10478889;28;20060;-71
2023/07/14 09:04:52;;;;;;;4.68;2.72;;;;;;;27.99;43.36;100229.00;10466545;28;20068;-71
2023/07/14 09:09:54;;;;;;;3.22;2.58;;;;;;;27.86;42.00;100232.25;10473860;28;20041;-71
2023/07/14 09:14:59;;;;;;;2.63;2.33;;;;;;;27.70;42.00;100237.56;10483918;28;20064;-72
2023/07/14 09:20:13;;;;;;;6.13;2.30;;;;;;;27.18;43.28;100242.84;10475210;28;20048;-70
2023/07/14 09:25:23;;;;;;;2.95;2.38;;;;;;;27.48;43.73;100252.88;10492442;28;20052;-73
2023/07/14 09:30:27;;;;;;;7.13;3.13;;;;;;;27.87;43.27;100258.44;10478577;28;20056;-73
2023/07/14 09:35:30;;;;;;;2.97;2.50;;;;;;;25.38;47.89;100266.31;10442448;28;20053;-73
2023/07/14 09:40:34;;;;;;;5.90;3.00;;;;;;;24.18;51.24;100269.53;10492335;28;20052;-73
2023/07/14 09:45:38;;;;;;;2.65;2.30;;;;;;;23.93;52.31;100263.59;10485877;28;20037;-73
2023/07/14 09:50:48;;;;;;;4.28;2.58;;;;;;;24.13;53.22;100265.06;10493405;28;20037;-72
2023/07/14 09:55:56;;;;;;;3.15;2.50;;;;;;;24.33;52.29;100262.94;10490718;28;20410;-74
2023/07/14 10:01:04;;;;;;;6.10;2.40;;;;;;;23.95;53.28;100272.41;10489089;28;20070;-74
2023/07/14 10:06:16;;;;;;;2.90;2.53;;;;;;;23.27;54.57;100276.25;10488112;28;20053;-72
2023/07/14 10:11:29;;;;;;;5.97;2.78;;;;;;;23.33;55.82;100271.91;10486357;28;20036;-74
2023/07/14 10:16:32;;;;;;;3.08;2.78;;;;;;;23.00;55.40;100269.78;10456488;28;20061;-74
2023/07/14 10:21:34;;;;;;;3.88;2.33;;;;;;;22.83;55.34;100273.88;10446423;28;20041;-72
2023/07/14 10:26:42;;;;;;;2.70;2.33;;;;;;;23.16;54.71;100276.88;10491398;28;20049;-74
2023/07/14 10:31:52;;;;;;;4.68;2.80;;;;;;;22.85;55.25;100288.31;10446645;28;20093;-73
2023/07/14 10:36:57;;;;;;;4.80;2.50;;;;;;;22.86;55.94;100278.75;10452127;28;20040;-73
2023/07/14 10:42:00;;;;;;;4.72;2.72;;;;;;;22.66;56.58;100274.34;10462184;28;20056;-74
2023/07/14 10:47:11;;;;;;;5.13;2.67;;;;;;;22.35;57.63;100284.53;10489527;28;20316;-74
2023/07/14 10:52:37;;;;;;;3.17;2.80;;;;;;;22.08;58.12;100300.38;10466602;28;20047;-73
2023/07/14 10:57:39;;;;;;;4.68;2.67;;;;;;;21.86;59.77;100293.47;10456173;28;20521;-73
2023/07/14 11:02:43;;;;;;;2.42;2.13;;;;;;;21.58;61.09;100281.69;10487387;28;21972;-74
2023/07/14 11:07:45;;;;;;;3.67;2.50;;;;;;;21.90;61.26;100282.41;10489727;28;20044;-75
2023/07/14 11:13:14;;;;;;;5.15;2.75;;;;;;;21.92;60.67;100288.44;10488592;28;20053;-75
2023/07/14 11:18:19;;;;;;;4.55;2.60;;;;;;;22.03;59.85;100274.66;10452736;28;20037;-74
2023/07/14 11:23:41;;;;;;;4.07;2.78;;;;;;;21.99;60.13;100280.19;10469658;28;20145;-74
2023/07/14 11:29:05;;;;;;;4.18;2.72;;;;;;;21.96;60.67;100276.16;10487042;28;20056;-74
2023/07/14 11:34:37;;;;;;;4.20;2.50;;;;;;;22.03;59.76;100269.88;10485424;28;20071;-74
2023/07/14 11:39:39;;;;;;;2.95;2.25;;;;;;;21.98;59.38;100278.56;10451166;28;20052;-74
2023/07/14 11:44:43;;;;;;;2.65;2.40;;;;;;;22.07;59.68;100293.19;10486271;28;20418;-74
2023/07/14 11:49:51;;;;;;;4.50;2.50;;;;;;;22.11;59.70;100288.47;10469242;28;20052;-74
2023/07/14 11:55:02;;;;;;;6.60;2.60;;;;;;;22.11;59.44;100293.25;10466225;28;20037;-74
2023/07/14 12:00:14;;;;;;;3.50;2.40;;;;;;;22.15;59.03;100294.13;10478352;28;20064;-73
2023/07/14 12:05:18;;;;;;;3.53;2.13;;;;;;;22.13;58.14;100297.28;10457832;28;20041;-73
2023/07/14 12:10:41;;;;;;;2.65;2.17;;;;;;;21.95;58.85;100288.50;10465960;28;20064;-73
2023/07/14 12:15:55;;;;;;;4.35;2.08;;;;;;;21.71;59.55;100302.75;10469542;28;20700;-74
2023/07/14 12:21:15;;;;;;;3.42;2.00;;;;;;;21.57;60.17;100305.19;10478856;28;20067;-73
2023/07/14 12:26:23;;;;;;;4.28;1.88;;;;;;;21.51;60.45;100287.88;10482682;28;20057;-73
2023/07/14 12:31:34;;;;;;;2.78;2.08;;;;;;;21.70;60.22;100297.50;10481860;28;20036;-72
2023/07/14 12:36:40;;;;;;;4.63;1.80;;;;;;;21.81;59.95;100302.16;10481414;28;20037;-74
2023/07/14 12:41:47;;;;;;;3.03;1.80;;;;;;;21.93;58.67;100295.63;10481807;28;20045;-74
2023/07/14 12:46:49;;;;;;;4.00;1.95;;;;;;;21.86;58.16;100287.88;10471394;28;20483;-74
2023/07/14 12:51:51;;;;;;;2.15;1.40;;;;;;;22.12;56.54;100289.28;10481290;28;20029;-73
2023/07/14 12:56:55;;;;;;;2.95;1.58;;;;;;;22.07;54.98;100295.16;10452180;28;20044;-73
2023/07/14 13:01:57;;;;;;;2.13;1.38;;;;;;;21.95;54.38;100296.88;10476810;28;20047;-74
2023/07/14 13:07:06;;;;;;;1.48;1.23;;;;;;;22.29;54.11;100300.00;10484262;28;20068;-73
2023/07/14 13:12:11;;;;;;;2.45;0.95;;;;;;;22.40;51.02;100292.66;10449648;28;20060;-73
2023/07/14 13:17:23;;;;;;;2.08;0.90;;;;;;;21.98;50.32;100306.50;10446272;28;20044;-74
2023/07/14 13:22:29;;;;;;;2.85;1.00;;;;;;;22.07;50.40;100303.53;10426532;28;20045;-73
2023/07/14 13:27:37;;;;;;;2.30;1.43;;;;;;;21.74;48.24;100303.97;10426011;28;20072;-74
2023/07/14 13:32:39;;;;;;;2.38;1.20;;;;;;;21.68;49.61;100303.44;10430042;28;20292;-74
2023/07/14 13:37:42;;;;;;;3.05;1.10;;;;;;;21.76;49.00;100305.22;10439733;28;20037;-73
2023/07/14 13:42:49;;;;;;;1.48;0.90;;;;;;;21.84;49.09;100295.81;10442336;28;20041;-74
2023/07/14 13:47:52;;;;;;;;;;;;;;;22.06;48.96;100302.75;10426894;28;20415;-74
2023/07/14 13:52:55;;;;;;;1.92;1.45;;;;;;;21.60;51.16;100301.66;10445783;28;20281;-74
2023/07/14 13:57:57;;;;;;;2.72;1.10;;;;;;;21.65;51.15;100302.19;10467904;28;20064;-74
2023/07/14 14:03:00;;;;;;;1.17;1.08;;;;;;;21.59;51.36;100305.63;10491406;28;20127;-74
2023/07/14 14:08:03;;;;;;;1.15;1.05;;;;;;;21.27;51.84;100305.69;10491947;28;20055;-73
2023/07/14 14:13:05;;;;;;;3.88;1.60;;;;;;;21.07;52.31;100306.75;10492536;28;20515;-74
2023/07/14 14:18:14;;;;;;;2.85;1.20;;;;;;;20.89;54.90;100309.06;10473884;28;20060;-73
2023/07/14 14:23:19;;;;;;;5.53;1.42;;;;;;;21.07;54.08;100312.31;10492611;28;20056;-74
2023/07/14 14:28:24;;;;;;;3.08;1.40;;;;;;;21.00;54.58;100312.97;10482695;28;20057;-74
2023/07/14 14:33:29;;;;;;;3.83;1.30;;;;;;;20.89;55.67;100309.06;10491889;28;20040;-73
2023/07/14 14:38:32;;;;;;;2.47;1.42;;;;;;;20.62;56.70;100321.88;10491391;28;20049;-74
2023/07/14 14:43:36;;;;;;;3.58;1.42;;;;;;;21.08;56.04;100320.31;10473879;28;20033;-74
2023/07/14 14:48:38;;;;;;;2.03;1.45;;;;;;;21.07;56.47;100307.56;10458263;28;20061;-74
2023/07/14 14:53:41;;;;;;;5.25;1.50;;;;;;;21.01;58.07;100311.78;10449182;28;20112;-74
2023/07/14 14:58:43;;;;;;;2.22;1.60;;;;;;;20.93;58.39;100318.34;10448822;28;20075;-74
2023/07/14 15:03:46;;;;;;;3.47;1.60;;;;;;;20.92;59.19;100311.13;10451802;28;20050;-75
2023/07/14 15:08:48;;;;;;;2.42;1.33;;;;;;;20.93;59.22;100309.16;10448567;28;20053;-74
2023/07/14 15:13:50;;;;;;;4.35;1.70;;;;;;;20.62;59.85;100321.88;10448492;28;20412;-74
2023/07/14 15:18:52;;;;;;;1.98;1.48;;;;;;;20.47;60.37;100323.47;10448536;28;20045;-74
2023/07/14 15:23:54;;;;;;;3.55;1.70;;;;;;;20.75;60.13;100329.03;10448118;28;20418;-74
2023/07/14 15:28:57;;;;;;;3.55;1.85;;;;;;;20.78;60.10;100321.91;10470702;28;20067;-73
2023/07/14 15:34:00;;;;;;;2.85;1.63;;;;;;;20.80;59.75;100318.75;10467222;28;20041;-77
2023/07/14 15:39:02;;;;;;;3.42;1.70;;;;;;;20.88;59.26;100315.81;10464905;28;20538;-79
2023/07/14 15:44:09;;;;;;;4.47;1.45;;;;;;;21.01;59.53;100330.50;10460454;28;20048;-79
2023/07/14 15:49:19;;;;;;;2.85;1.77;;;;;;;21.02;58.73;100315.38;10461194;28;20053;-73
2023/07/14 15:54:28;;;;;;;2.70;1.63;;;;;;;20.57;60.04;100322.16;10465026;28;20053;-73
2023/07/14 15:59:30;;;;;;;2.85;1.63;;;;;;;20.55;60.65;100320.88;10470986;28;20514;-73
2023/07/14 16:04:32;;;;;;;2.08;1.40;;;;;;;20.49;60.82;100317.56;10485359;28;20442;-73
2023/07/14 16:09:35;;;;;;;2.47;1.50;;;;;;;20.31;62.40;100316.22;10480671;28;20045;-73
2023/07/14 16:14:37;;;;;;;4.18;1.75;;;;;;;20.61;60.92;100314.69;10458969;28;20068;-73
2023/07/14 16:19:39;;;;;;;2.55;1.63;;;;;;;20.27;62.58;100316.09;10444241;28;20037;-73
2023/07/14 16:24:42;;;;;;;2.50;1.98;;;;;;;20.19;63.14;100317.06;10481988;28;20053;-74
2023/07/14 16:29:44;;;;;;;3.47;2.00;;;;;;;20.05;63.81;100317.44;10466305;28;20048;-73
2023/07/14 16:34:47;;;;;;;2.40;1.60;;;;;;;19.83;64.56;100312.41;10485508;28;20503;-74
2023/07/14 16:39:49;;;;;;;3.90;1.70;;;;;;;19.95;64.28;100317.13;10476308;28;20049;-75
2023/07/14 16:44:52;;;;;;;1.83;1.65;;;;;;;20.14;64.10;100320.91;10479421;28;20036;-74
2023/07/14 16:49:55;;;;;;;2.45;1.75;;;;;;;19.89;65.00;100322.13;10483920;28;20048;-74
2023/07/14 16:54:57;;;;;;;4.32;1.85;;;;;;;19.94;65.05;100327.44;10466782;28;20507;-72
2023/07/14 17:00:00;;;;;;;2.55;1.55;;;;;;;19.85;65.58;100332.34;10474842;28;20407;-72
2023/07/14 17:05:04;;;;;;;3.15;1.77;;;;;;;19.74;66.01;100342.34;10450034;28;20040;-74
2023/07/14 17:10:07;;;;;;;2.63;1.77;;;;;;;19.55;66.83;100340.97;10411668;28;20495;-72
2023/07/14 17:15:11;;;;;;;2.58;1.75;;;;;;;19.53;68.02;100346.03;10426917;28;20033;-72
2023/07/14 17:20:15;;;;;;;2.03;1.55;;;;;;;19.53;68.26;100343.25;10457527;28;20049;-73
2023/07/14 17:25:25;;;;;;;3.55;1.80;;;;;;;19.38;69.05;100340.34;10484819;28;20055;-73
2023/07/14 17:30:27;;;;;;;2.72;1.90;;;;;;;19.42;69.67;100338.50;10452769;28;20056;-73
2023/07/14 17:35:30;;;;;;;5.45;2.33;;;;;;;19.38;69.75;100343.94;10493102;28;20033;-72
2023/07/14 17:40:32;;;;;;;3.65;2.05;;;;;;;19.25;70.33;100351.47;10488757;28;20060;-73
2023/07/14 17:45:35;;;;;;;3.83;2.00;;;;;;;19.11;70.99;100355.75;10490331;28;20045;-73
2023/07/14 17:50:40;;;;;;;6.95;2.38;;;;;;;19.14;71.06;100355.88;10490715;28;20041;-72
2023/07/14 17:55:42;;;;;;;2.90;2.22;;;;;;;19.17;71.32;100362.72;10464558;28;20069;-73
2023/07/14 18:00:45;;;;;;;3.08;2.17;;;;;;;19.24;71.26;100366.53;10472441;28;20107;-73
2023/07/14 18:05:47;;;;;;;4.95;2.78;;;;;;;19.18;71.51;100361.56;10491683;28;20391;-72
2023/07/14 18:10:53;;;;;;;3.03;2.30;;;;;;;18.94;72.90;100356.78;10492240;28;20037;-72
2023/07/14 18:15:55;;;;;;;3.05;2.38;;;;;;;18.89;73.35;100359.75;10474480;28;20041;-73
2023/07/14 18:21:00;;;;;;;3.65;2.33;;;;;;;18.82;73.84;100360.34;10485922;28;20041;-73
2023/07/14 18:26:05;;;;;;;5.00;2.20;;;;;;;18.78;74.36;100359.41;10451866;28;20041;-73
2023/07/14 18:31:16;;;;;;;2.95;2.33;;;;;;;18.75;74.45;100354.53;10468494;28;20036;-73
2023/07/14 18:36:19;;;;;;;3.15;2.40;;;;;;;18.63;75.05;100349.72;10462928;28;20525;-73
2023/07/14 18:41:22;;;;;;;2.78;2.38;;;;;;;18.63;75.05;100351.69;10489511;28;20037;-73
2023/07/14 18:46:25;;;;;;;3.13;2.60;;;;;;;18.59;75.02;100347.97;10490076;28;20052;-72
2023/07/14 18:51:32;;;;;;;2.92;2.20;;;;;;;18.57;74.95;100344.69;10454328;28;20032;-73
2023/07/14 18:56:34;;;;;;;3.90;2.45;;;;;;;18.52;74.53;100351.28;10469252;28;20230;-73
2023/07/14 19:01:36;;;;;;;4.30;2.25;;;;;;;18.47;74.53;100353.47;10437353;28;20060;-73
2023/07/14 19:06:39;;;;;;;2.08;1.88;;;;;;;18.62;73.97;100350.06;10486511;28;20056;-71
2023/07/14 19:11:43;;;;;;;2.97;2.47;;;;;;;18.67;73.45;100344.28;10488685;28;20534;-73
2023/07/14 19:16:45;;;;;;;2.30;2.10;;;;;;;18.61;73.36;100352.03;10483164;28;20056;-72
2023/07/14 19:21:48;;;;;;;4.90;2.15;;;;;;;18.45;73.62;100350.22;10488875;28;20045;-72
2023/07/14 19:26:51;;;;;;;5.55;2.45;;;;;;;18.34;73.40;100358.13;10485025;28;20142;-73
2023/07/14 19:31:53;;;;;;;2.35;1.85;;;;;;;18.21;73.90;100351.72;10488834;28;20044;-73
2023/07/14 19:36:56;;;;;;;2.03;1.80;;;;;;;18.16;73.97;100349.16;10469129;28;20055;-73
2023/07/14 19:42:00;;;;;;;5.35;2.20;;;;;;;18.20;74.13;100343.72;10486653;28;20052;-73
2023/07/14 19:47:04;;;;;;;4.93;2.95;;;;;;;18.13;74.11;100349.81;10485458;28;20051;-73
2023/07/14 19:52:09;;;;;;;3.85;2.53;;;;;;;18.28;73.53;100346.44;10466515;28;20045;-73
2023/07/14 19:57:15;;;;;;;4.45;2.75;;;;;;;18.05;74.69;100339.63;10474987;28;20047;-73
2023/07/14 20:02:26;;;;;;;5.78;3.00;;;;;;;18.06;74.81;100338.47;10467165;28;20514;-73
2023/07/14 20:07:28;;;;;;;3.03;2.33;;;;;;;17.98;75.13;100345.69;10486200;28;20075;-74
2023/07/14 20:12:30;;;;;;;4.85;2.10;;;;;;;17.99;75.46;100355.63;10484115;28;20419;-74
2023/07/14 20:17:32;;;;;;;3.30;2.00;;;;;;;18.03;75.74;100344.66;10485052;28;20032;-74
2023/07/14 20:22:34;;;;;;;3.85;2.30;;;;;;;18.14;75.27;100347.88;10485799;28;20526;-73
2023/07/14 20:27:36;;;;;;;3.30;1.80;;;;;;;18.08;75.50;100348.06;10482817;28;20092;-74
2023/07/14 20:32:38;;;;;;;2.50;2.00;;;;;;;18.27;74.91;100353.16;10486537;28;20041;-74
2023/07/14 20:37:41;;;;;;;2.78;1.60;;;;;;;18.50;74.25;100353.59;10482931;28;20103;-74
2023/07/14 20:42:43;;;;;;;4.05;2.20;;;;;;;18.51;74.40;100341.31;10483022;28;20044;-74
2023/07/14 20:47:45;;;;;;;2.83;1.52;;;;;;;18.38;74.15;100350.75;10431611;28;20411;-74
2023/07/14 20:52:49;;;;;;;3.15;1.90;;;;;;;18.18;75.14;100357.13;10470481;28;20043;-74
2023/07/14 20:57:51;;;;;;;2.08;1.60;;;;;;;18.13;75.68;100358.16;10473552;28;20052;-74
2023/07/14 21:02:53;;;;;;;2.83;1.55;;;;;;;18.17;75.27;100364.66;10477093;28;20053;-75
2023/07/14 21:07:56;;;;;;;3.20;1.50;;;;;;;18.17;75.14;100367.44;10483574;28;20056;-74
2023/07/14 21:12:58;;;;;;;2.15;1.65;;;;;;;18.34;74.40;100361.72;10484239;28;20102;-75
2023/07/14 21:18:00;;;;;;;1.50;1.40;;;;;;;18.22;74.83;100371.97;10479975;28;20120;-75
2023/07/14 21:23:02;;;;;;;1.80;1.52;;;;;;;18.13;75.15;100377.59;10476014;28;20045;-73
2023/07/14 21:28:07;;;;;;;1.80;1.52;;;;;;;18.18;75.01;100385.72;10470022;28;20391;-72
2023/07/14 21:33:16;;;;;;;1.80;1.33;;;;;;;18.32;74.67;100375.16;10481056;28;20053;-73
2023/07/14 21:38:18;;;;;;;3.42;1.50;;;;;;;18.25;75.34;100382.41;10462233;28;20032;-74
2023/07/14 21:43:32;;;;;;;2.33;2.00;;;;;;;18.13;76.17;100383.16;10467196;28;20057;-73
2023/07/14 21:48:34;;;;;;;1.85;1.75;;;;;;;18.16;75.85;100379.69;10476835;28;20049;-72
2023/07/14 21:53:36;;;;;;;2.20;1.50;;;;;;;18.34;74.89;100372.03;10482009;28;20048;-73
2023/07/14 21:58:39;;;;;;;1.75;1.65;;;;;;;18.32;75.43;100383.47;10463689;28;20056;-73
2023/07/14 22:03:41;;;;;;;2.78;1.80;;;;;;;18.26;75.99;100382.06;10472323;28;20041;-73
2023/07/14 22:08:43;;;;;;;2.97;1.60;;;;;;;18.04;77.06;100390.72;10471298;28;20047;-73
2023/07/14 22:13:46;;;;;;;2.28;1.55;;;;;;;17.94;77.44;100388.34;10485309;28;20068;-73
2023/07/14 22:18:49;;;;;;;2.28;1.75;;;;;;;17.71;78.89;100383.09;10478305;28;20079;-73
2023/07/14 22:23:52;;;;;;;3.30;1.70;;;;;;;17.76;79.19;100388.47;10471137;28;20041;-73
2023/07/14 22:28:55;;;;;;;1.63;1.30;;;;;;;17.77;79.53;100389.28;10486162;28;20053;-73
2023/07/14 22:34:01;;;;;;;2.10;1.80;;;;;;;17.63;80.32;100391.44;10487210;28;20766;-73
2023/07/14 22:39:08;;;;;;;2.30;1.42;;;;;;;17.54;81.10;100387.91;10485086;28;20036;-74
2023/07/14 22:44:13;;;;;;;1.20;1.10;;;;;;;17.49;81.52;100386.09;10473345;28;20048;-72
2023/07/14 22:49:15;;;;;;;1.75;1.42;;;;;;;17.52;82.07;100392.94;10490447;28;20044;-74
2023/07/14 22:54:18;;;;;;;4.65;1.70;;;;;;;17.65;80.79;100389.13;10490832;28;20037;-73
2023/07/14 22:59:20;;;;;;;1.92;1.27;;;;;;;17.57;80.91;100379.72;10483866;28;20049;-73
2023/07/14 23:04:22;;;;;;;1.27;1.13;;;;;;;17.55;81.30;100387.56;10470194;28;20040;-73
2023/07/14 23:09:24;;;;;;;2.20;1.15;;;;;;;17.75;80.38;100389.59;10489274;28;20045;-73
2023/07/14 23:14:27;;;;;;;1.50;1.33;;;;;;;17.62;81.43;100385.06;10489406;28;20041;-74
2023/07/14 23:19:30;;;;;;;1.88;1.75;;;;;;;17.51;82.06;100392.13;10470550;28;20056;-74